Main page
METAR-TAF:

METAR-TAF

Airports :

Rabat, Morocco

Rabat–Salé Airport

latitude: 34-03N, longitude: 006-46W, elevation: 84 m

Current weather observation

The report was made 24 minutes ago, at 05:41 UTC
Calm wind
Temperature 15°C
Humidity 88%
Pressure 1017 hPa
Visibility: 1200 m
Scattered clouds at a height of 500 ft
mist

METAR: GMME 240541Z 00000KT 1200 R21/0700V1300U BR SCT005 15/13 Q1017 BECMG 5000

Time: 07:05 (06:05 UTC)

Forecast

The report was made 1 hour and 5 minutes ago, at 05:00 UTC
Forecast valid from 24 at 06 UTC to 25 at 12 UTC
Wind 2 kt from variable directions
Visibility: 0100 m
Broken clouds at a height of 500 ft
fog
Temporary
from 24 at 07 UTC to 24 at 09 UTC
Visibility: 3000 m
Scattered clouds at a height of 1000 ft
mist
Becoming
from 24 at 10 UTC to 24 at 14 UTC
Wind 8 kt from the North/Northwest
Visibility: 8000 m

TAF: GMME 240500Z 2406/2512 VRB02KT 0100 FG BKN005 TEMPO 2407/2409 3000 BR SCT010 BECMG 2410/2414 34008KT 8000 NSC

Weather observations and forecasts of more than 4000 airports (METAR and TAF reports).

The available stations are represented by yellow and red dots on the map.

Hover mouse over dot to see the name of the station.

Then click to see weather observations and forecasts.

To change the map : click on the green buttons with a black cross to zoom in, on the green button with a dash to zoom out, or on the green arrows for adjacent maps.


METAR-TAF: